sensor_id;sensor_type;location;lat;lon;timestamp;P1;durP1;ratioP1;P2;durP2;ratioP2
24801;SDS011;12898;50.520;12.152;2023-04-28T00:00:25;19.57;;;11.83;;
24801;SDS011;12898;50.520;12.152;2023-04-28T00:02:51;18.53;;;10.90;;
24801;SDS011;12898;50.520;12.152;2023-04-28T00:05:18;19.20;;;12.07;;
24801;SDS011;12898;50.520;12.152;2023-04-28T00:07:44;20.07;;;12.67;;
24801;SDS011;12898;50.520;12.152;2023-04-28T00:10:10;20.20;;;11.37;;
24801;SDS011;12898;50.520;12.152;2023-04-28T00:12:36;19.07;;;12.07;;
24801;SDS011;12898;50.520;12.152;2023-04-28T00:15:02;20.17;;;12.80;;
24801;SDS011;12898;50.520;12.152;2023-04-28T00:17:28;21.90;;;12.73;;
24801;SDS011;12898;50.520;12.152;2023-04-28T00:19:53;19.93;;;12.50;;
24801;SDS011;12898;50.520;12.152;2023-04-28T00:22:19;18.03;;;11.87;;
24801;SDS011;12898;50.520;12.152;2023-04-28T00:24:45;21.63;;;13.03;;
24801;SDS011;12898;50.520;12.152;2023-04-28T00:27:11;17.87;;;11.50;;
24801;SDS011;12898;50.520;12.152;2023-04-28T00:29:37;18.87;;;11.77;;
24801;SDS011;12898;50.520;12.152;2023-04-28T00:32:02;20.57;;;11.40;;
24801;SDS011;12898;50.520;12.152;2023-04-28T00:34:31;20.13;;;12.60;;
24801;SDS011;12898;50.520;12.152;2023-04-28T00:36:57;19.37;;;11.70;;
24801;SDS011;12898;50.520;12.152;2023-04-28T00:39:23;20.67;;;12.63;;
24801;SDS011;12898;50.520;12.152;2023-04-28T00:41:50;19.43;;;13.00;;
24801;SDS011;12898;50.520;12.152;2023-04-28T00:44:16;21.43;;;12.73;;
24801;SDS011;12898;50.520;12.152;2023-04-28T00:46:41;20.77;;;12.80;;
24801;SDS011;12898;50.520;12.152;2023-04-28T00:49:08;25.13;;;13.73;;
24801;SDS011;12898;50.520;12.152;2023-04-28T00:51:35;20.57;;;13.03;;
24801;SDS011;12898;50.520;12.152;2023-04-28T00:54:00;19.50;;;12.50;;
24801;SDS011;12898;50.520;12.152;2023-04-28T00:56:29;18.90;;;12.33;;
24801;SDS011;12898;50.520;12.152;2023-04-28T00:58:55;22.30;;;12.67;;
24801;SDS011;12898;50.520;12.152;2023-04-28T01:01:22;19.53;;;12.43;;
24801;SDS011;12898;50.520;12.152;2023-04-28T01:03:47;19.67;;;12.33;;
24801;SDS011;12898;50.520;12.152;2023-04-28T01:06:13;19.67;;;13.07;;
24801;SDS011;12898;50.520;12.152;2023-04-28T01:08:41;20.33;;;12.77;;
24801;SDS011;12898;50.520;12.152;2023-04-28T01:11:08;18.90;;;12.00;;
24801;SDS011;12898;50.520;12.152;2023-04-28T01:13:38;19.40;;;12.57;;
24801;SDS011;12898;50.520;12.152;2023-04-28T01:16:04;22.70;;;12.40;;
24801;SDS011;12898;50.520;12.152;2023-04-28T01:18:31;18.20;;;11.97;;
24801;SDS011;12898;50.520;12.152;2023-04-28T01:20:57;21.27;;;12.97;;
24801;SDS011;12898;50.520;12.152;2023-04-28T01:23:23;20.80;;;12.67;;
24801;SDS011;12898;50.520;12.152;2023-04-28T01:25:49;22.00;;;12.80;;
24801;SDS011;12898;50.520;12.152;2023-04-28T01:28:14;25.33;;;13.30;;
24801;SDS011;12898;50.520;12.152;2023-04-28T01:30:40;20.77;;;13.50;;
24801;SDS011;12898;50.520;12.152;2023-04-28T01:33:06;21.57;;;12.90;;
24801;SDS011;12898;50.520;12.152;2023-04-28T01:35:31;19.70;;;13.70;;
24801;SDS011;12898;50.520;12.152;2023-04-28T01:37:57;19.03;;;13.27;;
24801;SDS011;12898;50.520;12.152;2023-04-28T01:40:23;20.03;;;13.17;;
24801;SDS011;12898;50.520;12.152;2023-04-28T01:42:50;23.23;;;14.37;;
24801;SDS011;12898;50.520;12.152;2023-04-28T01:45:16;23.30;;;14.00;;
24801;SDS011;12898;50.520;12.152;2023-04-28T01:47:41;24.87;;;14.37;;
24801;SDS011;12898;50.520;12.152;2023-04-28T01:50:07;22.93;;;15.10;;
24801;SDS011;12898;50.520;12.152;2023-04-28T01:52:33;22.63;;;14.33;;
24801;SDS011;12898;50.520;12.152;2023-04-28T01:54:58;23.53;;;15.40;;
24801;SDS011;12898;50.520;12.152;2023-04-28T01:57:24;21.87;;;14.83;;
24801;SDS011;12898;50.520;12.152;2023-04-28T01:59:50;26.47;;;16.17;;
24801;SDS011;12898;50.520;12.152;2023-04-28T02:02:16;21.33;;;15.70;;
24801;SDS011;12898;50.520;12.152;2023-04-28T02:04:42;26.07;;;16.57;;
24801;SDS011;12898;50.520;12.152;2023-04-28T02:07:08;25.03;;;17.27;;
24801;SDS011;12898;50.520;12.152;2023-04-28T02:09:33;26.27;;;16.67;;
24801;SDS011;12898;50.520;12.152;2023-04-28T02:11:59;25.37;;;17.57;;
24801;SDS011;12898;50.520;12.152;2023-04-28T02:14:26;26.90;;;17.67;;
24801;SDS011;12898;50.520;12.152;2023-04-28T02:16:57;26.97;;;17.47;;
24801;SDS011;12898;50.520;12.152;2023-04-28T02:19:23;24.43;;;16.70;;
24801;SDS011;12898;50.520;12.152;2023-04-28T02:21:49;30.30;;;16.97;;
24801;SDS011;12898;50.520;12.152;2023-04-28T02:24:15;22.33;;;15.80;;
24801;SDS011;12898;50.520;12.152;2023-04-28T02:26:41;24.60;;;16.80;;
24801;SDS011;12898;50.520;12.152;2023-04-28T02:29:06;23.80;;;15.30;;
24801;SDS011;12898;50.520;12.152;2023-04-28T02:31:32;27.20;;;17.53;;
24801;SDS011;12898;50.520;12.152;2023-04-28T02:33:58;27.70;;;16.80;;
24801;SDS011;12898;50.520;12.152;2023-04-28T02:36:23;24.27;;;14.47;;
24801;SDS011;12898;50.520;12.152;2023-04-28T02:38:49;22.30;;;14.27;;
24801;SDS011;12898;50.520;12.152;2023-04-28T02:41:15;20.43;;;12.87;;
24801;SDS011;12898;50.520;12.152;2023-04-28T02:43:41;23.13;;;12.80;;
24801;SDS011;12898;50.520;12.152;2023-04-28T02:46:06;21.73;;;12.57;;
24801;SDS011;12898;50.520;12.152;2023-04-28T02:48:32;20.23;;;12.07;;
24801;SDS011;12898;50.520;12.152;2023-04-28T02:51:00;22.90;;;14.83;;
24801;SDS011;12898;50.520;12.152;2023-04-28T02:53:26;20.10;;;12.93;;
24801;SDS011;12898;50.520;12.152;2023-04-28T02:55:52;20.50;;;12.57;;
24801;SDS011;12898;50.520;12.152;2023-04-28T02:58:18;21.17;;;12.87;;
24801;SDS011;12898;50.520;12.152;2023-04-28T03:00:44;23.57;;;13.53;;
24801;SDS011;12898;50.520;12.152;2023-04-28T03:03:10;21.80;;;13.33;;
24801;SDS011;12898;50.520;12.152;2023-04-28T03:05:35;23.07;;;13.43;;
24801;SDS011;12898;50.520;12.152;2023-04-28T03:08:01;25.43;;;14.00;;
24801;SDS011;12898;50.520;12.152;2023-04-28T03:10:27;19.00;;;12.20;;
24801;SDS011;12898;50.520;12.152;2023-04-28T03:12:52;19.33;;;12.30;;
24801;SDS011;12898;50.520;12.152;2023-04-28T03:15:18;20.93;;;12.67;;
24801;SDS011;12898;50.520;12.152;2023-04-28T03:17:44;20.20;;;12.20;;
24801;SDS011;12898;50.520;12.152;2023-04-28T03:20:10;18.77;;;11.27;;
24801;SDS011;12898;50.520;12.152;2023-04-28T03:22:36;19.77;;;11.27;;
24801;SDS011;12898;50.520;12.152;2023-04-28T03:25:02;20.53;;;11.97;;
24801;SDS011;12898;50.520;12.152;2023-04-28T03:27:29;17.87;;;11.23;;
24801;SDS011;12898;50.520;12.152;2023-04-28T03:29:55;18.23;;;10.90;;
24801;SDS011;12898;50.520;12.152;2023-04-28T03:32:21;21.20;;;10.07;;
24801;SDS011;12898;50.520;12.152;2023-04-28T03:34:47;18.13;;;9.80;;
24801;SDS011;12898;50.520;12.152;2023-04-28T03:37:12;19.20;;;9.30;;
24801;SDS011;12898;50.520;12.152;2023-04-28T03:39:38;19.83;;;9.10;;
24801;SDS011;12898;50.520;12.152;2023-04-28T03:42:04;14.87;;;8.53;;
24801;SDS011;12898;50.520;12.152;2023-04-28T03:44:29;16.93;;;8.80;;
24801;SDS011;12898;50.520;12.152;2023-04-28T03:46:55;15.07;;;7.87;;
24801;SDS011;12898;50.520;12.152;2023-04-28T03:49:21;19.63;;;8.77;;
24801;SDS011;12898;50.520;12.152;2023-04-28T03:51:47;15.10;;;7.93;;
24801;SDS011;12898;50.520;12.152;2023-04-28T03:54:14;17.93;;;8.27;;
24801;SDS011;12898;50.520;12.152;2023-04-28T03:56:39;14.77;;;7.63;;
24801;SDS011;12898;50.520;12.152;2023-04-28T03:59:05;16.30;;;7.80;;
24801;SDS011;12898;50.520;12.152;2023-04-28T04:01:31;16.30;;;7.83;;
24801;SDS011;12898;50.520;12.152;2023-04-28T04:03:57;17.00;;;7.57;;
24801;SDS011;12898;50.520;12.152;2023-04-28T04:06:23;16.40;;;7.40;;
24801;SDS011;12898;50.520;12.152;2023-04-28T04:08:48;17.07;;;7.10;;
24801;SDS011;12898;50.520;12.152;2023-04-28T04:11:14;15.37;;;7.17;;
24801;SDS011;12898;50.520;12.152;2023-04-28T04:13:40;14.03;;;7.00;;
24801;SDS011;12898;50.520;12.152;2023-04-28T04:16:06;18.33;;;7.80;;
24801;SDS011;12898;50.520;12.152;2023-04-28T04:18:32;16.77;;;7.67;;
24801;SDS011;12898;50.520;12.152;2023-04-28T04:20:57;18.83;;;7.47;;
24801;SDS011;12898;50.520;12.152;2023-04-28T04:23:23;18.08;;;7.20;;
24801;SDS011;12898;50.520;12.152;2023-04-28T04:25:49;15.77;;;7.00;;
24801;SDS011;12898;50.520;12.152;2023-04-28T04:28:15;17.67;;;7.80;;
24801;SDS011;12898;50.520;12.152;2023-04-28T04:30:40;15.52;;;6.65;;
24801;SDS011;12898;50.520;12.152;2023-04-28T04:33:06;15.90;;;6.95;;
24801;SDS011;12898;50.520;12.152;2023-04-28T04:35:32;18.90;;;7.33;;
24801;SDS011;12898;50.520;12.152;2023-04-28T04:37:58;17.50;;;8.05;;
24801;SDS011;12898;50.520;12.152;2023-04-28T04:40:25;12.13;;;6.20;;
24801;SDS011;12898;50.520;12.152;2023-04-28T04:42:51;21.37;;;6.83;;
24801;SDS011;12898;50.520;12.152;2023-04-28T04:45:17;17.30;;;6.70;;
24801;SDS011;12898;50.520;12.152;2023-04-28T04:47:42;14.13;;;6.17;;
24801;SDS011;12898;50.520;12.152;2023-04-28T04:50:09;16.90;;;7.07;;
24801;SDS011;12898;50.520;12.152;2023-04-28T04:52:35;13.30;;;6.80;;
24801;SDS011;12898;50.520;12.152;2023-04-28T04:55:01;15.30;;;6.95;;
24801;SDS011;12898;50.520;12.152;2023-04-28T04:57:27;13.83;;;6.63;;
24801;SDS011;12898;50.520;12.152;2023-04-28T04:59:53;16.42;;;7.18;;
24801;SDS011;12898;50.520;12.152;2023-04-28T05:02:18;14.45;;;7.22;;
24801;SDS011;12898;50.520;12.152;2023-04-28T05:04:44;14.40;;;6.60;;
24801;SDS011;12898;50.520;12.152;2023-04-28T05:07:10;14.48;;;6.82;;
24801;SDS011;12898;50.520;12.152;2023-04-28T05:09:36;11.65;;;6.20;;
24801;SDS011;12898;50.520;12.152;2023-04-28T05:12:02;13.23;;;6.43;;
24801;SDS011;12898;50.520;12.152;2023-04-28T05:14:28;17.17;;;6.57;;
24801;SDS011;12898;50.520;12.152;2023-04-28T05:16:53;14.32;;;5.90;;
24801;SDS011;12898;50.520;12.152;2023-04-28T05:19:19;12.68;;;5.97;;
24801;SDS011;12898;50.520;12.152;2023-04-28T05:21:45;14.45;;;6.85;;
24801;SDS011;12898;50.520;12.152;2023-04-28T05:24:16;12.85;;;6.18;;
24801;SDS011;12898;50.520;12.152;2023-04-28T05:26:42;14.95;;;7.07;;
24801;SDS011;12898;50.520;12.152;2023-04-28T05:29:07;16.55;;;7.07;;
24801;SDS011;12898;50.520;12.152;2023-04-28T05:31:33;15.10;;;6.30;;
24801;SDS011;12898;50.520;12.152;2023-04-28T05:33:59;12.48;;;6.20;;
24801;SDS011;12898;50.520;12.152;2023-04-28T05:36:24;17.45;;;6.22;;
24801;SDS011;12898;50.520;12.152;2023-04-28T05:38:50;14.48;;;6.57;;
24801;SDS011;12898;50.520;12.152;2023-04-28T05:41:16;16.10;;;6.13;;
24801;SDS011;12898;50.520;12.152;2023-04-28T05:43:42;15.00;;;6.60;;
24801;SDS011;12898;50.520;12.152;2023-04-28T05:46:07;12.80;;;6.45;;
24801;SDS011;12898;50.520;12.152;2023-04-28T05:48:33;15.85;;;6.60;;
24801;SDS011;12898;50.520;12.152;2023-04-28T05:50:59;15.30;;;5.78;;
24801;SDS011;12898;50.520;12.152;2023-04-28T05:53:25;17.67;;;6.60;;
24801;SDS011;12898;50.520;12.152;2023-04-28T05:55:50;15.45;;;6.78;;
24801;SDS011;12898;50.520;12.152;2023-04-28T05:58:16;16.55;;;6.35;;
24801;SDS011;12898;50.520;12.152;2023-04-28T06:00:42;15.60;;;6.53;;
24801;SDS011;12898;50.520;12.152;2023-04-28T06:03:07;12.75;;;6.15;;
24801;SDS011;12898;50.520;12.152;2023-04-28T06:05:35;14.27;;;6.07;;
24801;SDS011;12898;50.520;12.152;2023-04-28T06:08:01;16.13;;;6.30;;
24801;SDS011;12898;50.520;12.152;2023-04-28T06:10:27;14.27;;;6.03;;
24801;SDS011;12898;50.520;12.152;2023-04-28T06:12:53;15.32;;;6.47;;
24801;SDS011;12898;50.520;12.152;2023-04-28T06:15:18;15.95;;;6.00;;
24801;SDS011;12898;50.520;12.152;2023-04-28T06:17:44;13.15;;;6.22;;
24801;SDS011;12898;50.520;12.152;2023-04-28T06:20:10;16.25;;;5.97;;
24801;SDS011;12898;50.520;12.152;2023-04-28T06:22:37;13.75;;;6.70;;
24801;SDS011;12898;50.520;12.152;2023-04-28T06:25:05;14.15;;;6.13;;
24801;SDS011;12898;50.520;12.152;2023-04-28T06:27:31;13.27;;;6.18;;
24801;SDS011;12898;50.520;12.152;2023-04-28T06:29:57;13.50;;;6.05;;
24801;SDS011;12898;50.520;12.152;2023-04-28T06:32:23;15.07;;;6.28;;
24801;SDS011;12898;50.520;12.152;2023-04-28T06:34:48;16.65;;;6.10;;
24801;SDS011;12898;50.520;12.152;2023-04-28T06:37:14;13.63;;;6.32;;
24801;SDS011;12898;50.520;12.152;2023-04-28T06:39:40;14.60;;;6.25;;
24801;SDS011;12898;50.520;12.152;2023-04-28T06:42:05;13.30;;;6.70;;
24801;SDS011;12898;50.520;12.152;2023-04-28T06:44:31;11.15;;;6.00;;
24801;SDS011;12898;50.520;12.152;2023-04-28T06:46:57;13.65;;;6.78;;
24801;SDS011;12898;50.520;12.152;2023-04-28T06:49:22;13.48;;;6.15;;
24801;SDS011;12898;50.520;12.152;2023-04-28T06:51:48;12.85;;;5.85;;
24801;SDS011;12898;50.520;12.152;2023-04-28T06:54:14;16.73;;;7.18;;
24801;SDS011;12898;50.520;12.152;2023-04-28T06:56:40;15.65;;;6.82;;
24801;SDS011;12898;50.520;12.152;2023-04-28T06:59:06;23.17;;;11.35;;
24801;SDS011;12898;50.520;12.152;2023-04-28T07:01:32;16.23;;;6.97;;
24801;SDS011;12898;50.520;12.152;2023-04-28T07:03:57;11.85;;;7.03;;
24801;SDS011;12898;50.520;12.152;2023-04-28T07:06:23;14.70;;;6.50;;
24801;SDS011;12898;50.520;12.152;2023-04-28T07:08:51;13.05;;;6.00;;
24801;SDS011;12898;50.520;12.152;2023-04-28T07:11:17;13.95;;;6.47;;
24801;SDS011;12898;50.520;12.152;2023-04-28T07:13:43;14.70;;;6.82;;
24801;SDS011;12898;50.520;12.152;2023-04-28T07:16:13;14.13;;;5.95;;
24801;SDS011;12898;50.520;12.152;2023-04-28T07:18:39;15.25;;;6.57;;
24801;SDS011;12898;50.520;12.152;2023-04-28T07:21:04;14.45;;;7.18;;
24801;SDS011;12898;50.520;12.152;2023-04-28T07:23:30;15.20;;;7.00;;
24801;SDS011;12898;50.520;12.152;2023-04-28T07:25:56;15.07;;;7.07;;
24801;SDS011;12898;50.520;12.152;2023-04-28T07:28:22;12.73;;;6.28;;
24801;SDS011;12898;50.520;12.152;2023-04-28T07:30:48;13.85;;;6.15;;
24801;SDS011;12898;50.520;12.152;2023-04-28T07:33:13;12.60;;;7.15;;
24801;SDS011;12898;50.520;12.152;2023-04-28T07:35:39;14.98;;;6.97;;
24801;SDS011;12898;50.520;12.152;2023-04-28T07:38:05;13.75;;;7.03;;
24801;SDS011;12898;50.520;12.152;2023-04-28T07:40:31;17.45;;;6.80;;
24801;SDS011;12898;50.520;12.152;2023-04-28T07:42:56;18.20;;;7.43;;
24801;SDS011;12898;50.520;12.152;2023-04-28T07:45:22;14.35;;;7.05;;
24801;SDS011;12898;50.520;12.152;2023-04-28T07:47:48;15.82;;;7.07;;
24801;SDS011;12898;50.520;12.152;2023-04-28T07:50:13;18.15;;;6.88;;
24801;SDS011;12898;50.520;12.152;2023-04-28T07:52:40;16.15;;;7.53;;
24801;SDS011;12898;50.520;12.152;2023-04-28T07:55:05;17.08;;;7.68;;
24801;SDS011;12898;50.520;12.152;2023-04-28T07:57:31;14.35;;;7.25;;
24801;SDS011;12898;50.520;12.152;2023-04-28T07:59:57;13.35;;;7.30;;
24801;SDS011;12898;50.520;12.152;2023-04-28T08:02:23;14.88;;;7.82;;
24801;SDS011;12898;50.520;12.152;2023-04-28T08:04:50;15.50;;;7.25;;
24801;SDS011;12898;50.520;12.152;2023-04-28T08:07:15;16.27;;;7.72;;
24801;SDS011;12898;50.520;12.152;2023-04-28T08:09:41;15.63;;;7.60;;
24801;SDS011;12898;50.520;12.152;2023-04-28T08:12:11;17.85;;;7.78;;
24801;SDS011;12898;50.520;12.152;2023-04-28T08:14:37;16.33;;;7.72;;
24801;SDS011;12898;50.520;12.152;2023-04-28T08:17:03;15.48;;;8.23;;
24801;SDS011;12898;50.520;12.152;2023-04-28T08:19:28;16.15;;;7.18;;
24801;SDS011;12898;50.520;12.152;2023-04-28T08:21:54;18.48;;;7.85;;
24801;SDS011;12898;50.520;12.152;2023-04-28T08:24:20;19.45;;;9.07;;
24801;SDS011;12898;50.520;12.152;2023-04-28T08:26:46;23.40;;;8.18;;
24801;SDS011;12898;50.520;12.152;2023-04-28T08:29:11;16.98;;;8.13;;
24801;SDS011;12898;50.520;12.152;2023-04-28T08:31:37;14.60;;;7.50;;
24801;SDS011;12898;50.520;12.152;2023-04-28T08:34:03;15.32;;;7.47;;
24801;SDS011;12898;50.520;12.152;2023-04-28T08:36:28;17.85;;;8.43;;
24801;SDS011;12898;50.520;12.152;2023-04-28T08:38:56;15.88;;;8.10;;
24801;SDS011;12898;50.520;12.152;2023-04-28T08:41:23;12.63;;;7.65;;
24801;SDS011;12898;50.520;12.152;2023-04-28T08:43:53;15.32;;;8.43;;
24801;SDS011;12898;50.520;12.152;2023-04-28T08:46:20;16.65;;;8.68;;
24801;SDS011;12898;50.520;12.152;2023-04-28T08:48:46;18.23;;;8.50;;
24801;SDS011;12898;50.520;12.152;2023-04-28T08:51:22;16.10;;;8.50;;
24801;SDS011;12898;50.520;12.152;2023-04-28T08:53:54;14.55;;;8.85;;
24801;SDS011;12898;50.520;12.152;2023-04-28T08:56:21;21.30;;;9.00;;
24801;SDS011;12898;50.520;12.152;2023-04-28T08:58:49;16.58;;;9.00;;
24801;SDS011;12898;50.520;12.152;2023-04-28T09:01:16;14.93;;;8.20;;
24801;SDS011;12898;50.520;12.152;2023-04-28T09:03:41;16.75;;;8.65;;
24801;SDS011;12898;50.520;12.152;2023-04-28T09:06:07;15.98;;;9.32;;
24801;SDS011;12898;50.520;12.152;2023-04-28T09:08:33;17.08;;;8.48;;
24801;SDS011;12898;50.520;12.152;2023-04-28T09:11:08;14.80;;;8.30;;
24801;SDS011;12898;50.520;12.152;2023-04-28T09:13:36;17.45;;;8.98;;
24801;SDS011;12898;50.520;12.152;2023-04-28T09:16:02;17.35;;;8.15;;
24801;SDS011;12898;50.520;12.152;2023-04-28T09:18:28;15.85;;;8.52;;
24801;SDS011;12898;50.520;12.152;2023-04-28T09:21:06;15.32;;;8.23;;
24801;SDS011;12898;50.520;12.152;2023-04-28T09:23:34;13.95;;;8.55;;
24801;SDS011;12898;50.520;12.152;2023-04-28T09:26:16;14.10;;;7.78;;
24801;SDS011;12898;50.520;12.152;2023-04-28T09:28:42;15.05;;;8.43;;
24801;SDS011;12898;50.520;12.152;2023-04-28T09:31:23;14.35;;;8.30;;
24801;SDS011;12898;50.520;12.152;2023-04-28T09:33:55;17.77;;;8.23;;
24801;SDS011;12898;50.520;12.152;2023-04-28T09:36:28;17.25;;;8.20;;
24801;SDS011;12898;50.520;12.152;2023-04-28T09:38:56;18.58;;;8.68;;
24801;SDS011;12898;50.520;12.152;2023-04-28T09:41:35;15.73;;;8.20;;
24801;SDS011;12898;50.520;12.152;2023-04-28T09:46:39;13.30;;;7.85;;
24801;SDS011;12898;50.520;12.152;2023-04-28T09:49:06;14.90;;;7.80;;
24801;SDS011;12898;50.520;12.152;2023-04-28T09:51:32;16.30;;;8.82;;
24801;SDS011;12898;50.520;12.152;2023-04-28T09:53:59;14.55;;;7.93;;
24801;SDS011;12898;50.520;12.152;2023-04-28T09:56:28;16.10;;;8.02;;
24801;SDS011;12898;50.520;12.152;2023-04-28T09:58:56;17.48;;;8.30;;
24801;SDS011;12898;50.520;12.152;2023-04-28T10:01:23;15.85;;;8.27;;
24801;SDS011;12898;50.520;12.152;2023-04-28T10:04:01;13.55;;;8.70;;
24801;SDS011;12898;50.520;12.152;2023-04-28T10:06:29;14.80;;;8.48;;
24801;SDS011;12898;50.520;12.152;2023-04-28T10:08:55;13.75;;;7.72;;
24801;SDS011;12898;50.520;12.152;2023-04-28T10:11:22;15.00;;;8.43;;
24801;SDS011;12898;50.520;12.152;2023-04-28T10:13:49;16.33;;;8.48;;
24801;SDS011;12898;50.520;12.152;2023-04-28T10:16:17;12.90;;;7.70;;
24801;SDS011;12898;50.520;12.152;2023-04-28T10:18:44;16.38;;;8.40;;
24801;SDS011;12898;50.520;12.152;2023-04-28T10:21:10;15.77;;;7.38;;
24801;SDS011;12898;50.520;12.152;2023-04-28T10:24:03;15.65;;;8.38;;
24801;SDS011;12898;50.520;12.152;2023-04-28T10:26:51;16.33;;;8.50;;
24801;SDS011;12898;50.520;12.152;2023-04-28T10:29:33;16.23;;;8.40;;
24801;SDS011;12898;50.520;12.152;2023-04-28T10:32:19;16.35;;;8.70;;
24801;SDS011;12898;50.520;12.152;2023-04-28T10:34:48;15.65;;;8.18;;
24801;SDS011;12898;50.520;12.152;2023-04-28T10:37:14;13.93;;;8.32;;
24801;SDS011;12898;50.520;12.152;2023-04-28T10:40:17;16.15;;;8.43;;
24801;SDS011;12898;50.520;12.152;2023-04-28T10:42:55;13.73;;;8.07;;
24801;SDS011;12898;50.520;12.152;2023-04-28T10:48:22;14.18;;;8.13;;
24801;SDS011;12898;50.520;12.152;2023-04-28T10:56:14;16.77;;;8.30;;
24801;SDS011;12898;50.520;12.152;2023-04-28T10:58:54;16.52;;;9.30;;
24801;SDS011;12898;50.520;12.152;2023-04-28T11:06:27;15.57;;;9.50;;
24801;SDS011;12898;50.520;12.152;2023-04-28T11:12:02;14.88;;;8.48;;
24801;SDS011;12898;50.520;12.152;2023-04-28T11:14:31;14.02;;;7.93;;
24801;SDS011;12898;50.520;12.152;2023-04-28T11:17:02;16.42;;;7.95;;
24801;SDS011;12898;50.520;12.152;2023-04-28T11:19:45;14.32;;;7.90;;
24801;SDS011;12898;50.520;12.152;2023-04-28T11:24:56;14.95;;;8.50;;
24801;SDS011;12898;50.520;12.152;2023-04-28T11:27:24;14.18;;;8.45;;
24801;SDS011;12898;50.520;12.152;2023-04-28T11:29:51;12.90;;;7.15;;
24801;SDS011;12898;50.520;12.152;2023-04-28T11:32:24;17.17;;;8.52;;
24801;SDS011;12898;50.520;12.152;2023-04-28T11:34:58;15.77;;;8.02;;
24801;SDS011;12898;50.520;12.152;2023-04-28T11:37:24;11.80;;;7.25;;
24801;SDS011;12898;50.520;12.152;2023-04-28T11:39:51;14.68;;;7.25;;
24801;SDS011;12898;50.520;12.152;2023-04-28T11:42:16;13.98;;;7.80;;
24801;SDS011;12898;50.520;12.152;2023-04-28T11:44:49;13.95;;;7.85;;
24801;SDS011;12898;50.520;12.152;2023-04-28T11:47:21;14.43;;;7.78;;
24801;SDS011;12898;50.520;12.152;2023-04-28T11:49:57;13.77;;;6.70;;
24801;SDS011;12898;50.520;12.152;2023-04-28T11:52:23;12.45;;;6.82;;
24801;SDS011;12898;50.520;12.152;2023-04-28T11:54:53;13.70;;;7.35;;
24801;SDS011;12898;50.520;12.152;2023-04-28T11:57:21;15.23;;;7.82;;
24801;SDS011;12898;50.520;12.152;2023-04-28T11:59:47;12.65;;;8.27;;
24801;SDS011;12898;50.520;12.152;2023-04-28T12:02:14;12.05;;;7.70;;
24801;SDS011;12898;50.520;12.152;2023-04-28T12:04:41;13.13;;;8.15;;
24801;SDS011;12898;50.520;12.152;2023-04-28T12:09:38;12.65;;;7.63;;
24801;SDS011;12898;50.520;12.152;2023-04-28T12:12:10;12.23;;;7.53;;
24801;SDS011;12898;50.520;12.152;2023-04-28T12:14:58;13.30;;;7.75;;
24801;SDS011;12898;50.520;12.152;2023-04-28T12:17:26;15.18;;;7.80;;
24801;SDS011;12898;50.520;12.152;2023-04-28T12:19:55;14.05;;;7.95;;
24801;SDS011;12898;50.520;12.152;2023-04-28T12:22:24;13.05;;;8.02;;
24801;SDS011;12898;50.520;12.152;2023-04-28T12:25:03;12.98;;;7.47;;
24801;SDS011;12898;50.520;12.152;2023-04-28T12:27:37;13.05;;;8.05;;
24801;SDS011;12898;50.520;12.152;2023-04-28T12:33:06;12.50;;;7.25;;
24801;SDS011;12898;50.520;12.152;2023-04-28T12:35:51;15.90;;;7.72;;
24801;SDS011;12898;50.520;12.152;2023-04-28T12:38:20;13.38;;;7.18;;
24801;SDS011;12898;50.520;12.152;2023-04-28T12:40:49;15.32;;;7.38;;
24801;SDS011;12898;50.520;12.152;2023-04-28T12:43:15;14.68;;;7.80;;
24801;SDS011;12898;50.520;12.152;2023-04-28T12:45:41;13.90;;;7.22;;
24801;SDS011;12898;50.520;12.152;2023-04-28T12:48:07;13.23;;;7.43;;
24801;SDS011;12898;50.520;12.152;2023-04-28T12:50:33;11.95;;;7.18;;
24801;SDS011;12898;50.520;12.152;2023-04-28T12:52:58;15.20;;;7.55;;
24801;SDS011;12898;50.520;12.152;2023-04-28T12:55:25;12.98;;;7.13;;
24801;SDS011;12898;50.520;12.152;2023-04-28T12:57:51;11.60;;;7.07;;
24801;SDS011;12898;50.520;12.152;2023-04-28T13:00:17;15.60;;;7.32;;
24801;SDS011;12898;50.520;12.152;2023-04-28T13:02:47;12.07;;;7.07;;
24801;SDS011;12898;50.520;12.152;2023-04-28T13:05:14;12.68;;;7.45;;
24801;SDS011;12898;50.520;12.152;2023-04-28T13:07:39;11.57;;;7.57;;
24801;SDS011;12898;50.520;12.152;2023-04-28T13:10:06;12.48;;;7.30;;
24801;SDS011;12898;50.520;12.152;2023-04-28T13:12:32;13.18;;;7.57;;
24801;SDS011;12898;50.520;12.152;2023-04-28T13:15:01;12.77;;;7.13;;
24801;SDS011;12898;50.520;12.152;2023-04-28T13:17:28;11.98;;;7.30;;
24801;SDS011;12898;50.520;12.152;2023-04-28T13:19:54;10.18;;;7.10;;
24801;SDS011;12898;50.520;12.152;2023-04-28T13:22:19;13.65;;;7.15;;
24801;SDS011;12898;50.520;12.152;2023-04-28T13:24:48;12.18;;;7.63;;
24801;SDS011;12898;50.520;12.152;2023-04-28T13:27:13;15.10;;;7.50;;
24801;SDS011;12898;50.520;12.152;2023-04-28T13:29:39;11.77;;;7.32;;
24801;SDS011;12898;50.520;12.152;2023-04-28T13:32:05;12.07;;;7.40;;
24801;SDS011;12898;50.520;12.152;2023-04-28T13:34:31;12.75;;;7.30;;
24801;SDS011;12898;50.520;12.152;2023-04-28T13:36:56;12.43;;;6.97;;
24801;SDS011;12898;50.520;12.152;2023-04-28T13:39:22;12.40;;;7.75;;
24801;SDS011;12898;50.520;12.152;2023-04-28T13:41:48;12.90;;;7.53;;
24801;SDS011;12898;50.520;12.152;2023-04-28T13:44:14;14.93;;;7.57;;
24801;SDS011;12898;50.520;12.152;2023-04-28T13:46:40;23.25;;;8.40;;
24801;SDS011;12898;50.520;12.152;2023-04-28T13:49:08;19.40;;;7.95;;
24801;SDS011;12898;50.520;12.152;2023-04-28T13:51:34;13.02;;;7.32;;
24801;SDS011;12898;50.520;12.152;2023-04-28T13:54:00;20.02;;;8.32;;
24801;SDS011;12898;50.520;12.152;2023-04-28T13:56:29;14.85;;;8.13;;
24801;SDS011;12898;50.520;12.152;2023-04-28T13:58:58;13.05;;;7.47;;
24801;SDS011;12898;50.520;12.152;2023-04-28T14:01:24;13.55;;;7.18;;
24801;SDS011;12898;50.520;12.152;2023-04-28T14:03:50;12.07;;;7.85;;
24801;SDS011;12898;50.520;12.152;2023-04-28T14:06:16;13.52;;;7.93;;
24801;SDS011;12898;50.520;12.152;2023-04-28T14:08:41;13.95;;;7.90;;
24801;SDS011;12898;50.520;12.152;2023-04-28T14:11:07;12.98;;;7.57;;
24801;SDS011;12898;50.520;12.152;2023-04-28T14:13:33;16.45;;;7.65;;
24801;SDS011;12898;50.520;12.152;2023-04-28T14:15:59;15.15;;;7.93;;
24801;SDS011;12898;50.520;12.152;2023-04-28T14:18:28;13.48;;;8.05;;
24801;SDS011;12898;50.520;12.152;2023-04-28T14:20:54;13.98;;;8.68;;
24801;SDS011;12898;50.520;12.152;2023-04-28T14:23:21;13.82;;;8.40;;
24801;SDS011;12898;50.520;12.152;2023-04-28T14:25:47;12.65;;;8.55;;
24801;SDS011;12898;50.520;12.152;2023-04-28T14:28:13;13.48;;;7.95;;
24801;SDS011;12898;50.520;12.152;2023-04-28T14:30:38;15.02;;;8.43;;
24801;SDS011;12898;50.520;12.152;2023-04-28T14:33:04;13.07;;;8.57;;
24801;SDS011;12898;50.520;12.152;2023-04-28T14:35:30;13.55;;;8.13;;
24801;SDS011;12898;50.520;12.152;2023-04-28T14:37:57;17.92;;;8.93;;
24801;SDS011;12898;50.520;12.152;2023-04-28T14:40:22;13.32;;;8.63;;
24801;SDS011;12898;50.520;12.152;2023-04-28T14:42:49;13.73;;;8.18;;
24801;SDS011;12898;50.520;12.152;2023-04-28T14:45:14;12.35;;;8.60;;